Time;durP1;ratioP1;P1;durP2;ratioP2;P2;SDS_P1;SDS_P2;PMS_P1;PMS_P2;Temp;Humidity;BMP_temperature;BMP_pressure;BME280_temperature;BME280_humidity;BME280_pressure;Samples;Min_cycle;Max_cycle;Signal;HPM_P1;HPM_P2
2022/03/27 00:00:05;;;;;;;1.40;1.40;;;;;;;3.94;47.94;101715.82;103964;1280;108792;-73
2022/03/27 00:03:02;;;;;;;1.40;1.40;;;;;;;3.97;48.29;101719.39;104055;1279;138286;-76
2022/03/27 00:05:30;;;;;;;1.40;1.40;;;;;;;3.89;48.23;101719.41;104080;1280;106707;-75
2022/03/27 00:07:58;;;;;;;1.30;1.30;;;;;;;3.81;48.55;101711.33;103812;1280;137900;-75
2022/03/27 00:11:23;;;;;;;1.30;1.30;;;;;;;3.77;48.90;101711.42;104192;1279;96080;-75
2022/03/27 00:13:15;;;;;;;1.40;1.40;;;;;;;3.74;49.08;101713.10;103832;1279;137929;-74
2022/03/27 00:15:44;;;;;;;1.40;1.40;;;;;;;3.69;49.06;101715.27;104239;1279;98400;-74
2022/03/27 00:18:12;;;;;;;1.40;1.40;;;;;;;3.68;49.20;101720.87;103981;1281;106654;-75
2022/03/27 00:20:40;;;;;;;1.40;1.40;;;;;;;3.68;49.04;101725.95;103913;1279;137928;-73
2022/03/27 00:23:08;;;;;;;1.50;1.50;;;;;;;3.66;49.39;101723.63;104181;1279;96146;-75
2022/03/27 00:25:36;;;;;;;1.50;1.50;;;;;;;3.66;49.60;101721.52;103852;1279;137658;-75
2022/03/27 00:28:04;;;;;;;1.50;1.50;;;;;;;3.69;49.49;101719.47;104150;1279;98105;-75
2022/03/27 00:30:32;;;;;;;1.50;1.50;;;;;;;3.70;49.27;101718.95;104094;1279;105493;-75
2022/03/27 00:33:00;;;;;;;1.40;1.40;;;;;;;3.64;49.35;101723.05;104048;1279;138294;-75
2022/03/27 00:35:28;;;;;;;1.40;1.40;;;;;;;3.56;49.46;101723.92;104038;1279;95314;-77
2022/03/27 00:37:57;;;;;;;1.40;1.40;;;;;;;3.50;49.41;101729.39;103821;1280;138340;-75
2022/03/27 00:40:25;;;;;;;1.40;1.40;;;;;;;3.49;49.80;101728.14;104146;1279;98231;-75
2022/03/27 00:42:53;;;;;;;1.40;1.40;;;;;;;3.46;49.44;101730.52;103812;1279;138887;-76
2022/03/27 00:45:21;;;;;;;1.40;1.40;;;;;;;3.39;49.65;101730.17;103845;1281;95741;-75
2022/03/27 00:47:49;;;;;;;1.30;1.30;;;;;;;3.38;49.80;101727.34;104222;1280;95189;-75
2022/03/27 00:50:17;;;;;;;1.50;1.50;;;;;;;3.41;50.15;101730.06;103956;1280;138015;-75
2022/03/27 00:52:46;;;;;;;1.50;1.50;;;;;;;3.42;50.06;101730.27;104196;1280;98903;-72
2022/03/27 00:55:18;;;;;;;1.50;1.50;;;;;;;3.39;49.87;101734.04;103897;1279;138484;-75
2022/03/27 00:57:46;;;;;;;1.50;1.50;;;;;;;3.40;50.03;101737.41;104148;1280;96230;-74
2022/03/27 01:00:37;;;;;;;1.40;1.40;;;;;;;3.46;49.71;101734.92;103906;1279;95695;-75
2022/03/27 01:03:26;;;;;;;1.40;1.40;;;;;;;3.53;49.51;101739.29;103670;1281;138320;-73
2022/03/27 01:05:58;;;;;;;1.50;1.50;;;;;;;3.46;49.66;101738.94;104170;1279;98319;-76
2022/03/27 01:11:19;;;;;;;1.40;1.40;;;;;;;3.41;49.72;101741.29;104096;1279;95371;-75
2022/03/27 01:13:58;;;;;;;1.40;1.40;;;;;;;3.40;50.19;101740.56;103982;1279;138847;-75
2022/03/27 01:16:47;;;;;;;1.50;1.50;;;;;;;3.38;49.82;101741.56;104054;1280;109054;-75
2022/03/27 01:19:16;;;;;;;1.50;1.50;;;;;;;3.30;49.96;101740.85;103883;1280;138378;-75
2022/03/27 01:21:46;;;;;;;1.50;1.50;;;;;;;3.23;50.21;101742.42;104091;1279;107767;-75
2022/03/27 01:24:19;;;;;;;1.50;1.50;;;;;;;3.15;50.54;101735.90;104125;1279;95241;-76
2022/03/27 01:26:47;;;;;;;1.50;1.50;;;;;;;3.15;50.54;101731.52;103872;1280;196355;-76
2022/03/27 01:29:15;;;;;;;1.50;1.50;;;;;;;3.15;50.62;101732.20;103988;1280;108265;-75
2022/03/27 01:31:43;;;;;;;1.50;1.50;;;;;;;3.13;50.81;101731.10;104133;1279;137994;-75
2022/03/27 01:34:11;;;;;;;1.60;1.60;;;;;;;3.11;50.56;101728.77;104013;1279;107873;-75
2022/03/27 01:36:39;;;;;;;1.60;1.60;;;;;;;3.06;50.96;101731.11;104063;1279;96561;-75
2022/03/27 01:39:12;;;;;;;1.60;1.60;;;;;;;3.05;50.95;101736.70;103974;1280;138005;-75
2022/03/27 01:41:41;;;;;;;1.50;1.50;;;;;;;3.03;51.00;101731.04;104310;1279;108718;-73
2022/03/27 01:44:15;;;;;;;1.50;1.50;;;;;;;3.02;50.85;101734.15;103975;1279;138052;-76
2022/03/27 01:46:44;;;;;;;1.50;1.50;;;;;;;3.01;51.06;101733.43;104323;1280;107464;-75
2022/03/27 01:49:15;;;;;;;1.50;1.50;;;;;;;3.01;51.17;101733.10;103940;1279;138465;-74
2022/03/27 01:51:44;;;;;;;1.60;1.60;;;;;;;2.98;51.14;101734.06;104465;1279;95217;-75
2022/03/27 01:54:13;;;;;;;1.70;1.70;;;;;;;2.93;51.33;101734.27;104144;1280;108719;-75
2022/03/27 01:56:42;;;;;;;1.50;1.50;;;;;;;2.87;51.20;101741.46;104066;1280;137935;-74
2022/03/27 01:59:10;;;;;;;1.50;1.50;;;;;;;2.86;51.31;101747.41;103984;1279;107862;-73
2022/03/27 02:01:38;;;;;;;1.60;1.60;;;;;;;2.89;51.76;101747.48;104198;1279;138293;-74
2022/03/27 02:04:07;;;;;;;1.50;1.50;;;;;;;2.82;51.54;101751.00;103924;1280;95252;-75
2022/03/27 02:06:39;;;;;;;1.40;1.40;;;;;;;2.78;51.69;101756.50;104186;1279;108754;-75
2022/03/27 02:09:09;;;;;;;1.50;1.50;;;;;;;2.73;51.54;101752.50;104038;1279;137569;-75
2022/03/27 02:11:37;;;;;;;1.80;1.80;;;;;;;2.71;52.05;101761.91;104100;1279;108522;-74
2022/03/27 02:14:05;;;;;;;1.70;1.70;;;;;;;2.71;51.76;101761.91;103893;1281;137771;-75
2022/03/27 02:16:33;;;;;;;1.50;1.50;;;;;;;2.70;52.02;101763.13;104202;1280;95229;-75
2022/03/27 02:19:02;;;;;;;1.70;1.70;;;;;;;2.70;51.93;101763.30;103938;1281;138161;-75
2022/03/27 02:21:30;;;;;;;1.60;1.60;;;;;;;2.72;52.12;101766.16;104004;1281;98386;-75
2022/03/27 02:23:58;;;;;;;1.50;1.50;;;;;;;2.75;52.07;101768.86;104230;1281;108561;-75
2022/03/27 02:26:26;;;;;;;1.50;1.50;;;;;;;2.74;51.90;101768.67;104002;1280;137772;-75
2022/03/27 02:28:54;;;;;;;1.50;1.50;;;;;;;2.75;51.95;101766.23;103972;1282;95263;-74
2022/03/27 02:31:22;;;;;;;1.40;1.40;;;;;;;2.79;51.86;101769.67;104031;1281;138804;-74
2022/03/27 02:33:50;;;;;;;1.60;1.60;;;;;;;2.78;52.16;101765.46;103921;1281;98203;-75
2022/03/27 02:36:18;;;;;;;1.90;1.90;;;;;;;2.75;51.97;101769.23;104098;1279;108532;-76
2022/03/27 02:38:46;;;;;;;1.50;1.50;;;;;;;2.66;51.63;101771.27;103743;1282;137862;-75
2022/03/27 02:41:15;;;;;;;1.40;1.40;;;;;;;2.62;52.23;101770.45;104118;1279;95618;-75
2022/03/27 02:43:43;;;;;;;1.50;1.50;;;;;;;2.58;52.09;101773.48;104006;1279;137637;-75
2022/03/27 02:46:11;;;;;;;1.50;1.50;;;;;;;2.56;52.26;101782.00;104238;1279;99100;-76
2022/03/27 02:48:39;;;;;;;1.50;1.50;;;;;;;2.53;52.14;101784.89;104023;1281;107761;-76
2022/03/27 02:51:07;;;;;;;1.60;1.60;;;;;;;2.46;52.35;101786.46;103970;1279;138121;-75
2022/03/27 02:53:35;;;;;;;1.60;1.60;;;;;;;2.43;52.23;101795.12;104236;1279;95129;-75
2022/03/27 02:56:06;;;;;;;1.60;1.60;;;;;;;2.44;52.39;101792.35;104051;1280;137567;-73
2022/03/27 02:58:35;;;;;;;1.70;1.70;;;;;;;2.42;52.58;101800.02;104346;1279;98332;-76
2022/03/27 03:01:04;;;;;;;1.60;1.60;;;;;;;2.45;52.50;101798.36;104108;1279;138488;-75
2022/03/27 03:03:32;;;;;;;1.50;1.50;;;;;;;2.43;52.28;101798.46;104088;1279;95767;-76
2022/03/27 03:06:02;;;;;;;1.50;1.50;;;;;;;2.47;52.60;101794.73;104051;1281;95239;-74
2022/03/27 03:08:30;;;;;;;1.50;1.50;;;;;;;2.50;52.38;101800.42;103810;1282;137778;-75
2022/03/27 03:10:58;;;;;;;1.70;1.70;;;;;;;2.51;52.19;101798.88;104268;1279;98376;-75
2022/03/27 03:13:26;;;;;;;1.60;1.60;;;;;;;2.60;52.24;101797.20;103876;1282;136779;-75
2022/03/27 03:15:54;;;;;;;1.60;1.60;;;;;;;2.60;52.00;101797.02;104079;1281;96237;-76
2022/03/27 03:18:24;;;;;;;1.70;1.70;;;;;;;2.56;52.11;101803.05;104082;1279;95604;-76
2022/03/27 03:20:52;;;;;;;1.60;1.60;;;;;;;2.51;52.16;101805.17;104239;1279;137698;-75
2022/03/27 03:23:20;;;;;;;1.60;1.60;;;;;;;2.56;52.04;101807.77;104095;1281;98756;-75
2022/03/27 03:25:49;;;;;;;1.70;1.70;;;;;;;2.51;52.11;101811.16;103953;1279;137582;-75
2022/03/27 03:28:36;;;;;;;1.70;1.70;;;;;;;2.44;52.04;101808.30;104048;1280;95199;-75
2022/03/27 03:31:05;;;;;;;1.70;1.70;;;;;;;2.41;52.10;101806.29;104087;1281;137830;-75
2022/03/27 03:33:33;;;;;;;1.90;1.90;;;;;;;2.42;52.62;101805.95;104174;1282;108679;-73
2022/03/27 03:36:01;;;;;;;1.80;1.80;;;;;;;2.33;52.53;101806.93;104029;1281;98333;-75
2022/03/27 03:38:29;;;;;;;1.60;1.60;;;;;;;2.30;52.52;101810.52;104053;1279;137929;-75
2022/03/27 03:40:58;;;;;;;1.60;1.60;;;;;;;2.32;52.62;101815.31;103974;1281;95689;-73
2022/03/27 03:43:26;;;;;;;1.70;1.70;;;;;;;2.37;52.77;101819.30;103883;1280;138675;-75
2022/03/27 03:45:54;;;;;;;1.70;1.70;;;;;;;2.37;52.49;101825.80;103841;1282;108644;-74
2022/03/27 03:48:22;;;;;;;1.80;1.80;;;;;;;2.30;52.45;101830.16;104041;1280;98894;-75
2022/03/27 03:50:50;;;;;;;1.70;1.70;;;;;;;2.25;52.50;101839.97;104132;1279;137576;-74
2022/03/27 03:53:18;;;;;;;1.70;1.70;;;;;;;2.17;52.69;101842.89;103989;1281;95348;-76
2022/03/27 03:55:45;;;;;;;1.80;1.80;;;;;;;2.16;53.20;101849.15;104017;1279;138205;-76
2022/03/27 03:58:14;;;;;;;1.80;1.80;;;;;;;2.11;53.38;101848.66;103946;1281;108746;-76
2022/03/27 04:00:42;;;;;;;1.80;1.80;;;;;;;2.08;53.39;101847.33;104165;1279;98345;-75
2022/03/27 04:03:11;;;;;;;1.70;1.70;;;;;;;2.07;53.64;101854.30;103720;1280;137784;-76
2022/03/27 04:05:39;;;;;;;1.70;1.70;;;;;;;2.15;53.51;101853.68;104187;1279;95256;-76
2022/03/27 04:08:07;;;;;;;1.70;1.70;;;;;;;2.13;53.25;101853.63;103710;1281;137630;-74
2022/03/27 04:10:35;;;;;;;1.60;1.60;;;;;;;2.15;53.24;101854.05;103783;1281;108924;-75
2022/03/27 04:13:03;;;;;;;1.60;1.60;;;;;;;2.19;53.41;101850.13;103798;1280;137883;-76
2022/03/27 04:15:31;;;;;;;1.60;1.60;;;;;;;2.11;53.27;101852.86;104029;1280;107724;-76
2022/03/27 04:18:18;;;;;;;1.80;1.80;;;;;;;2.13;53.41;101857.13;104114;1280;95272;-75
2022/03/27 04:20:46;;;;;;;1.80;1.80;;;;;;;2.09;53.26;101858.58;103996;1280;137779;-75
2022/03/27 04:23:14;;;;;;;1.80;1.80;;;;;;;2.09;53.38;101861.73;104186;1280;108716;-75
2022/03/27 04:25:42;;;;;;;1.70;1.70;;;;;;;2.08;53.63;101863.98;103908;1279;139537;-75
2022/03/27 04:28:10;;;;;;;1.60;1.60;;;;;;;2.05;53.82;101866.84;104115;1280;107738;-74
2022/03/27 04:30:38;;;;;;;1.70;1.70;;;;;;;2.07;53.74;101865.86;104118;1279;96027;-76
2022/03/27 04:33:08;;;;;;;1.70;1.70;;;;;;;2.08;53.63;101872.91;104002;1279;137577;-73
2022/03/27 04:35:37;;;;;;;1.80;1.80;;;;;;;2.07;53.54;101875.33;104331;1280;108722;-75
2022/03/27 04:38:06;;;;;;;1.70;1.70;;;;;;;2.07;53.64;101877.80;104074;1279;137872;-75
2022/03/27 04:40:34;;;;;;;1.80;1.80;;;;;;;2.05;53.96;101880.70;104114;1279;107691;-75
2022/03/27 04:43:03;;;;;;;1.80;1.80;;;;;;;2.03;54.07;101885.86;103958;1280;137887;-72
2022/03/27 04:45:31;;;;;;;1.90;1.90;;;;;;;1.98;54.00;101882.58;103940;1281;95766;-72
2022/03/27 04:47:59;;;;;;;1.80;1.80;;;;;;;2.03;54.06;101882.73;103963;1281;106974;-76
2022/03/27 04:50:27;;;;;;;1.70;1.70;;;;;;;2.05;54.51;101880.15;103913;1281;138117;-75
2022/03/27 04:52:55;;;;;;;1.70;1.70;;;;;;;2.04;54.32;101888.38;103960;1279;107596;-75
2022/03/27 04:55:23;;;;;;;1.70;1.70;;;;;;;2.06;54.32;101894.77;103600;1281;138491;-75
2022/03/27 04:57:51;;;;;;;1.80;1.80;;;;;;;2.09;54.03;101901.70;104063;1279;95245;-75
2022/03/27 05:00:19;;;;;;;1.60;1.60;;;;;;;2.08;54.35;101903.39;104164;1279;109320;-76
2022/03/27 05:02:47;;;;;;;1.90;1.90;;;;;;;2.09;54.37;101907.81;104126;1280;137933;-74
2022/03/27 05:05:15;;;;;;;1.80;1.80;;;;;;;2.06;54.68;101911.38;104056;1280;110661;-74
2022/03/27 05:07:44;;;;;;;1.70;1.70;;;;;;;2.06;54.90;101915.23;103974;1280;138280;-75
2022/03/27 05:10:13;;;;;;;1.60;1.60;;;;;;;2.08;54.55;101913.23;103789;1279;95272;-76
2022/03/27 05:12:41;;;;;;;1.70;1.70;;;;;;;2.15;54.42;101910.10;103955;1280;108707;-76
2022/03/27 05:15:12;;;;;;;1.70;1.70;;;;;;;2.23;54.16;101917.90;103912;1280;138843;-73
2022/03/27 05:17:51;;;;;;;1.70;1.70;;;;;;;2.24;54.50;101920.38;103964;1280;107237;-76
2022/03/27 05:20:22;;;;;;;1.70;1.70;;;;;;;2.26;54.29;101920.79;103863;1279;138035;-74
2022/03/27 05:22:50;;;;;;;1.60;1.60;;;;;;;2.27;54.49;101924.33;104102;1280;96630;-73
2022/03/27 05:25:19;;;;;;;1.70;1.70;;;;;;;2.25;54.56;101927.59;103982;1280;137919;-75
2022/03/27 05:27:50;;;;;;;1.60;1.60;;;;;;;2.22;54.66;101939.25;104064;1281;98359;-74
2022/03/27 05:30:19;;;;;;;1.70;1.70;;;;;;;2.31;54.90;101942.52;104188;1280;107812;-75
2022/03/27 05:32:48;;;;;;;1.60;1.60;;;;;;;2.36;54.56;101946.17;103999;1282;137979;-75
2022/03/27 05:35:17;;;;;;;1.60;1.60;;;;;;;2.38;54.08;101949.05;104232;1281;95666;-75
2022/03/27 05:37:46;;;;;;;1.70;1.70;;;;;;;2.42;54.54;101945.16;104089;1280;138358;-74
2022/03/27 05:40:17;;;;;;;1.70;1.70;;;;;;;2.48;54.46;101946.40;103975;1280;97321;-77
2022/03/27 05:42:49;;;;;;;1.60;1.60;;;;;;;2.56;54.23;101950.31;104292;1279;107643;-75
2022/03/27 05:45:18;;;;;;;1.60;1.60;;;;;;;2.58;54.31;101945.66;103742;1279;138215;-76
2022/03/27 05:47:45;;;;;;;1.60;1.60;;;;;;;2.59;54.43;101940.95;103985;1280;95587;-76
2022/03/27 05:50:16;;;;;;;1.50;1.50;;;;;;;2.64;54.37;101941.98;104069;1281;139195;-75
2022/03/27 05:52:44;;;;;;;1.60;1.60;;;;;;;2.64;54.18;101944.45;104121;1280;97365;-75
2022/03/27 05:55:12;;;;;;;1.60;1.60;;;;;;;2.61;54.34;101952.23;104018;1280;138157;-75
2022/03/27 05:57:42;;;;;;;1.60;1.60;;;;;;;2.67;54.73;101959.09;104128;1280;95239;-76
2022/03/27 06:00:12;;;;;;;1.50;1.50;;;;;;;2.76;54.00;101965.85;104374;1279;95123;-75
2022/03/27 06:02:44;;;;;;;1.50;1.50;;;;;;;2.81;54.41;101969.54;104033;1280;138671;-75
2022/03/27 06:05:12;;;;;;;1.60;1.60;;;;;;;2.86;54.17;101970.20;104206;1280;97426;-75
2022/03/27 06:07:42;;;;;;;1.50;1.50;;;;;;;2.89;54.11;101970.81;104132;1279;138598;-75
2022/03/27 06:10:11;;;;;;;1.50;1.50;;;;;;;2.93;54.32;101969.70;104237;1281;95323;-74
2022/03/27 06:12:39;;;;;;;1.70;1.70;;;;;;;2.95;54.32;101968.88;104013;1281;98151;-75
2022/03/27 06:15:08;;;;;;;1.50;1.50;;;;;;;2.97;54.58;101973.16;104053;1279;138521;-74
2022/03/27 06:17:45;;;;;;;1.50;1.50;;;;;;;3.06;54.31;101978.33;104308;1279;98682;-76
2022/03/27 06:20:18;;;;;;;1.40;1.40;;;;;;;3.11;54.20;101987.10;104141;1279;138341;-74
2022/03/27 06:22:46;;;;;;;1.50;1.50;;;;;;;3.22;53.95;101990.75;104406;1279;97057;-75
2022/03/27 06:25:20;;;;;;;1.40;1.40;;;;;;;3.28;54.36;101991.83;103900;1280;138410;-75
2022/03/27 06:27:48;;;;;;;1.50;1.50;;;;;;;3.41;53.81;101995.67;104425;1281;107706;-75
2022/03/27 06:30:19;;;;;;;1.40;1.40;;;;;;;3.51;54.04;101995.95;103989;1279;98973;-74
2022/03/27 06:32:48;;;;;;;1.60;1.60;;;;;;;3.64;53.95;101993.37;103968;1279;136608;-74
2022/03/27 06:35:16;;;;;;;1.40;1.40;;;;;;;3.70;53.44;101993.33;104091;1281;96256;-76
2022/03/27 06:37:44;;;;;;;1.50;1.50;;;;;;;3.76;53.53;101997.36;103927;1280;138022;-76
2022/03/27 06:40:13;;;;;;;1.30;1.30;;;;;;;3.80;53.37;101996.61;104251;1281;108354;-74
2022/03/27 06:42:43;;;;;;;1.70;1.70;;;;;;;3.88;53.27;101994.73;104106;1281;98268;-73
2022/03/27 06:45:13;;;;;;;1.50;1.50;;;;;;;4.01;53.16;102001.55;104113;1280;138108;-74
2022/03/27 06:47:44;;;;;;;1.30;1.30;;;;;;;4.06;52.32;102002.55;104369;1280;96276;-75
2022/03/27 06:50:14;;;;;;;1.40;1.40;;;;;;;4.06;51.97;101996.96;104196;1279;138035;-75
2022/03/27 06:52:43;;;;;;;1.40;1.40;;;;;;;4.08;51.37;102001.05;104380;1281;109215;-76
2022/03/27 06:55:11;;;;;;;1.30;1.30;;;;;;;4.16;51.48;101998.45;103894;1280;138387;-75
2022/03/27 06:57:39;;;;;;;1.30;1.30;;;;;;;4.28;51.19;101995.39;104119;1280;106877;-75
2022/03/27 07:03:03;;;;;;;1.30;1.30;;;;;;;4.57;48.67;102001.91;104130;1280;138090;-73
2022/03/27 07:05:39;;;;;;;1.20;1.20;;;;;;;4.61;45.67;102007.29;104141;1279;107888;-75
2022/03/27 07:08:10;;;;;;;1.30;1.30;;;;;;;4.67;44.87;102013.05;104130;1280;138457;-75
2022/03/27 07:10:40;;;;;;;1.20;1.20;;;;;;;4.73;44.00;102013.19;104348;1279;109258;-79
2022/03/27 07:13:12;;;;;;;1.20;1.20;;;;;;;4.76;43.60;102019.80;104230;1280;137935;-74
2022/03/27 07:15:42;;;;;;;1.20;1.20;;;;;;;4.83;43.75;102020.13;104451;1280;95268;-74
2022/03/27 07:18:11;;;;;;;1.20;1.20;;;;;;;4.91;43.19;102028.23;104256;1281;108715;-76
2022/03/27 07:20:41;;;;;;;1.20;1.20;;;;;;;4.96;42.47;102029.92;104498;1279;138201;-74
2022/03/27 07:23:17;;;;;;;1.20;1.20;;;;;;;5.02;41.69;102031.65;104174;1280;107680;-75
2022/03/27 07:25:48;;;;;;;1.20;1.20;;;;;;;5.08;41.44;102033.52;103873;1280;138611;-76
2022/03/27 07:28:18;;;;;;;1.10;1.10;;;;;;;5.21;41.08;102034.17;103876;1281;95923;-73
2022/03/27 07:30:47;;;;;;;1.10;1.10;;;;;;;5.29;40.46;102040.18;103970;1281;108751;-74
2022/03/27 07:33:17;;;;;;;1.00;1.00;;;;;;;5.35;38.83;102046.98;103988;1282;138274;-77
2022/03/27 07:35:46;;;;;;;1.10;1.10;;;;;;;5.40;38.48;102039.34;104055;1280;107588;-77
2022/03/27 07:38:15;;;;;;;1.10;1.10;;;;;;;5.49;38.42;102040.59;104016;1279;137972;-76
2022/03/27 07:40:43;;;;;;;1.00;1.00;;;;;;;5.61;37.34;102048.59;103821;1282;95721;-76
2022/03/27 07:43:11;;;;;;;1.00;1.00;;;;;;;5.74;37.68;102046.20;104111;1281;137775;-73
2022/03/27 07:45:39;;;;;;;1.20;1.20;;;;;;;5.80;36.14;102042.30;104226;1279;97343;-75
2022/03/27 07:48:08;;;;;;;1.10;1.10;;;;;;;5.86;36.02;102040.11;104061;1279;107838;-75
2022/03/27 07:50:36;;;;;;;1.10;1.10;;;;;;;5.87;34.70;102042.60;104012;1280;137738;-74
2022/03/27 07:53:05;;;;;;;1.00;1.00;;;;;;;5.93;35.66;102041.83;103928;1281;95535;-73
2022/03/27 07:55:34;;;;;;;1.00;1.00;;;;;;;6.03;35.55;102038.02;104097;1281;138476;-75
2022/03/27 07:58:02;;;;;;;1.00;1.00;;;;;;;6.12;34.69;102039.40;104080;1280;97279;-74
2022/03/27 08:00:31;;;;;;;1.00;1.00;;;;;;;6.19;33.91;102037.78;104144;1280;107893;-75
2022/03/27 08:02:59;;;;;;;0.90;0.90;;;;;;;6.34;34.59;102035.22;103893;1281;138189;-75
2022/03/27 08:05:27;;;;;;;0.90;0.90;;;;;;;6.50;34.62;102034.61;103934;1281;95268;-76
2022/03/27 08:07:56;;;;;;;0.90;0.90;;;;;;;6.62;32.89;102031.98;103984;1281;139255;-74
2022/03/27 08:10:24;;;;;;;1.00;1.00;;;;;;;6.72;32.14;102029.66;103971;1281;98135;-76
2022/03/27 08:12:55;;;;;;;0.90;0.90;;;;;;;6.81;31.33;102020.80;103900;1281;108292;-76
2022/03/27 08:15:23;;;;;;;0.90;0.90;;;;;;;6.93;31.26;102019.05;103857;1281;137666;-75
2022/03/27 08:17:53;;;;;;;0.90;0.90;;;;;;;7.07;31.25;102012.19;103910;1281;95759;-74
2022/03/27 08:20:23;;;;;;;0.90;0.90;;;;;;;7.18;30.38;102004.02;103658;1281;138149;-75
2022/03/27 08:22:51;;;;;;;0.80;0.80;;;;;;;7.28;30.07;102001.34;104122;1280;98407;-77
2022/03/27 08:28:08;;;;;;;0.80;0.80;;;;;;;7.64;29.82;102008.33;104076;1281;95281;-74
2022/03/27 08:30:41;;;;;;;0.80;0.80;;;;;;;7.81;29.04;102007.82;104056;1281;95657;-76
2022/03/27 08:33:09;;;;;;;0.80;0.80;;;;;;;7.95;30.03;102011.14;103666;1282;137944;-76
2022/03/27 08:35:41;;;;;;;0.70;0.70;;;;;;;8.20;29.49;102016.88;103920;1282;98373;-76
2022/03/27 08:38:14;;;;;;;0.70;0.70;;;;;;;8.31;28.68;102021.23;104013;1281;138178;-75
2022/03/27 08:40:44;;;;;;;0.70;0.70;;;;;;;8.44;28.47;102028.06;104093;1281;96026;-76
2022/03/27 08:43:14;;;;;;;0.70;0.70;;;;;;;8.62;27.40;102029.48;103977;1283;138025;-76
2022/03/27 08:45:43;;;;;;;0.70;0.70;;;;;;;8.71;26.30;102028.67;104083;1281;109222;-76
2022/03/27 08:48:12;;;;;;;0.60;0.60;;;;;;;8.85;27.10;102028.59;103943;1282;98201;-75
2022/03/27 08:50:50;;;;;;;0.60;0.60;;;;;;;9.00;26.27;102024.98;103908;1281;136581;-77
2022/03/27 08:53:32;;;;;;;0.60;0.60;;;;;;;9.12;26.32;102028.60;104060;1282;97081;-75
2022/03/27 08:56:06;;;;;;;0.60;0.60;;;;;;;9.36;26.24;102027.66;104017;1281;138027;-75
2022/03/27 08:58:37;;;;;;;0.60;0.60;;;;;;;9.57;24.88;102030.60;103955;1281;108702;-76
2022/03/27 09:01:06;;;;;;;0.60;0.60;;;;;;;9.64;24.65;102022.65;104058;1281;138892;-74
2022/03/27 09:03:35;;;;;;;0.60;0.60;;;;;;;9.83;24.81;102019.33;104145;1281;107614;-76
2022/03/27 09:06:08;;;;;;;0.60;0.60;;;;;;;10.14;24.93;102020.64;103691;1282;96707;-76
2022/03/27 09:08:38;;;;;;;0.60;0.60;;;;;;;10.65;24.57;102022.84;104159;1281;137867;-75
2022/03/27 09:11:06;;;;;;;0.50;0.50;;;;;;;11.04;22.89;102018.17;104083;1284;108675;-76
2022/03/27 09:13:35;;;;;;;0.50;0.50;;;;;;;11.16;22.64;102013.34;104108;1281;138731;-77
2022/03/27 09:16:06;;;;;;;0.50;0.40;;;;;;;11.45;22.56;102009.86;104028;1281;107795;-75
2022/03/27 09:18:50;;;;;;;0.50;0.40;;;;;;;11.84;22.43;102006.30;104142;1281;96524;-76
2022/03/27 09:21:20;;;;;;;0.40;0.40;;;;;;;12.57;22.25;102004.73;103906;1281;138228;-76
2022/03/27 09:23:58;;;;;;;0.60;0.60;;;;;;;12.79;21.48;102015.41;103853;1281;108870;-76
2022/03/27 09:26:27;;;;;;;0.90;0.90;;;;;;;13.39;21.17;102003.16;103875;1281;138924;-76
2022/03/27 09:29:06;;;;;;;0.50;0.40;;;;;;;14.97;20.11;101994.48;103924;1284;107476;-75
2022/03/27 09:31:37;;;;;;;0.40;0.30;;;;;;;16.88;18.57;101991.42;105426;1281;138814;-74
2022/03/27 09:34:07;;;;;;;0.40;0.20;;;;;;;18.47;17.62;101986.84;104128;1283;95389;-75
2022/03/27 09:36:42;;;;;;;0.40;0.20;;;;;;;19.63;16.05;101992.44;104154;1281;109170;-76
2022/03/27 09:39:22;;;;;;;0.40;0.10;;;;;;;19.98;15.11;102000.09;104093;1280;138106;-75
2022/03/27 09:41:52;;;;;;;0.40;0.10;;;;;;;20.45;14.77;102007.20;104070;1281;108455;-75
2022/03/27 09:44:36;;;;;;;0.40;0.20;;;;;;;20.93;14.84;102000.11;104034;1280;138191;-75
2022/03/27 09:47:10;;;;;;;0.40;0.10;;;;;;;21.65;14.17;102001.54;104177;1281;95298;-75
2022/03/27 09:49:44;;;;;;;0.40;0.20;;;;;;;21.93;13.67;101993.16;104225;1280;138247;-76
2022/03/27 09:52:17;;;;;;;0.40;0.10;;;;;;;22.55;13.74;101991.52;103963;1281;97878;-76
2022/03/27 09:55:01;;;;;;;0.40;0.10;;;;;;;23.46;13.55;101989.45;104132;1281;109020;-75
2022/03/27 09:57:40;;;;;;;0.40;0.10;;;;;;;24.22;13.24;101985.02;103907;1281;138207;-75
2022/03/27 10:00:18;;;;;;;0.40;0.10;;;;;;;24.70;12.12;101982.76;104250;1280;95223;-78
2022/03/27 10:02:48;;;;;;;0.40;0.10;;;;;;;24.95;12.00;101987.05;104135;1280;137872;-76
2022/03/27 10:05:19;;;;;;;0.40;0.10;;;;;;;25.71;12.18;101983.91;104261;1280;99367;-75
2022/03/27 10:07:52;;;;;;;0.40;0.10;;;;;;;26.27;11.55;101980.98;104260;1281;138147;-74
2022/03/27 10:10:22;;;;;;;0.40;0.00;;;;;;;26.45;11.74;101985.21;104150;1281;95337;-76
2022/03/27 10:12:51;;;;;;;0.40;0.00;;;;;;;26.84;11.16;101976.38;104097;1281;95215;-75
2022/03/27 10:15:21;;;;;;;0.40;0.00;;;;;;;26.84;11.25;101972.34;103953;1281;138310;-76
2022/03/27 10:18:12;;;;;;;0.40;0.00;;;;;;;26.74;11.44;101958.44;104207;1280;98310;-74
2022/03/27 10:20:41;;;;;;;0.40;0.00;;;;;;;27.28;10.92;101946.43;103940;1281;137978;-75
2022/03/27 10:23:24;;;;;;;0.40;0.10;;;;;;;27.53;11.15;101943.05;104039;1281;95239;-76
2022/03/27 10:25:59;;;;;;;0.40;0.00;;;;;;;27.82;11.03;101943.59;103827;1281;138323;-77
2022/03/27 10:28:28;;;;;;;0.40;0.00;;;;;;;27.80;10.45;101939.39;103983;1281;108752;-76
2022/03/27 10:30:56;;;;;;;0.40;0.00;;;;;;;27.38;10.31;101933.33;103965;1281;97332;-77
2022/03/27 10:33:27;;;;;;;0.40;0.00;;;;;;;27.18;10.21;101923.67;104039;1281;137727;-76
2022/03/27 10:36:29;;;;;;;0.40;0.00;;;;;;;26.68;10.13;101923.51;104101;1281;96808;-75
2022/03/27 10:39:09;;;;;;;0.40;0.00;;;;;;;26.73;10.49;101922.63;103923;1281;138399;-75
2022/03/27 10:41:52;;;;;;;0.40;0.00;;;;;;;26.42;10.24;101923.70;104162;1281;108699;-76
2022/03/27 10:44:36;;;;;;;0.40;0.00;;;;;;;26.07;10.66;101923.70;104156;1281;138272;-75
2022/03/27 10:47:25;;;;;;;0.40;0.00;;;;;;;26.36;11.04;101923.89;104053;1281;107935;-75
2022/03/27 10:50:04;;;;;;;0.40;0.00;;;;;;;26.44;10.89;101919.16;104010;1281;138393;-76
2022/03/27 10:52:56;;;;;;;0.40;0.00;;;;;;;25.90;10.79;101918.98;103969;1280;95458;-76
2022/03/27 10:55:40;;;;;;;0.40;0.00;;;;;;;23.98;11.66;101929.05;104165;1280;138151;-75
2022/03/27 10:58:25;;;;;;;0.40;0.00;;;;;;;22.56;12.63;101929.73;104057;1281;98572;-75
2022/03/27 11:00:54;;;;;;;0.40;0.10;;;;;;;21.51;13.40;101926.25;104225;1281;108444;-75
2022/03/27 11:03:45;;;;;;;0.40;0.00;;;;;;;20.28;13.80;101932.65;103773;1281;138334;-73
2022/03/27 11:06:20;;;;;;;0.40;0.10;;;;;;;19.34;14.63;101934.58;104170;1281;95050;-74
2022/03/27 11:08:49;;;;;;;0.40;0.10;;;;;;;18.19;15.40;101936.17;104274;1281;137880;-76
2022/03/27 11:11:35;;;;;;;0.40;0.10;;;;;;;17.68;16.17;101935.99;104103;1281;98391;-75
2022/03/27 11:14:04;;;;;;;0.40;0.10;;;;;;;17.15;16.49;101936.70;104015;1281;138597;-74
2022/03/27 11:16:36;;;;;;;0.40;0.10;;;;;;;16.68;17.35;101932.78;104162;1280;95335;-73
2022/03/27 11:19:04;;;;;;;0.40;0.10;;;;;;;16.17;17.61;101936.08;104047;1280;96344;-74
2022/03/27 11:21:32;;;;;;;0.40;0.20;;;;;;;15.74;18.30;101931.35;104008;1281;138534;-73
2022/03/27 11:24:03;;;;;;;0.40;0.20;;;;;;;15.38;18.53;101930.72;104299;1281;98434;-74
2022/03/27 11:26:33;;;;;;;0.40;0.20;;;;;;;15.10;18.82;101931.85;104093;1281;138387;-75
2022/03/27 11:29:06;;;;;;;0.40;0.20;;;;;;;14.72;19.15;101928.48;104038;1284;95429;-74
2022/03/27 11:31:36;;;;;;;0.40;0.20;;;;;;;14.39;19.54;101923.69;103645;1283;138530;-75
2022/03/27 11:34:17;;;;;;;0.40;0.20;;;;;;;14.00;20.04;101919.70;104224;1282;108443;-75
2022/03/27 11:36:48;;;;;;;0.40;0.20;;;;;;;13.73;20.50;101918.69;104354;1281;98188;-76
2022/03/27 11:39:28;;;;;;;0.40;0.30;;;;;;;13.46;21.12;101914.08;104184;1281;138126;-75
2022/03/27 11:42:23;;;;;;;0.40;0.30;;;;;;;13.21;21.63;101911.34;104255;1281;96189;-75
2022/03/27 11:45:13;;;;;;;0.40;0.30;;;;;;;12.88;21.60;101903.38;104065;1281;138525;-75